Time;durP1;ratioP1;P1;durP2;ratioP2;P2;SDS_P1;SDS_P2;PMS_P1;PMS_P2;Temp;Humidity;BMP_temperature;BMP_pressure;BME280_temperature;BME280_humidity;BME280_pressure;Samples;Min_cycle;Max_cycle;Signal;HPM_P1;HPM_P2
2023/05/13 00:00:38;;;;;;;8.00;3.10;;;;;;;11.75;59.84;101099.59;1647065;87;21084;-59
2023/05/13 00:03:07;;;;;;;7.22;2.85;;;;;;;11.74;60.04;101103.89;1647398;87;21068;-59
2023/05/13 00:05:37;;;;;;;5.62;2.75;;;;;;;11.69;60.03;101107.69;1647030;87;21096;-59
2023/05/13 00:08:07;;;;;;;7.17;3.12;;;;;;;11.68;60.20;101105.98;1647162;87;21490;-59
2023/05/13 00:10:36;;;;;;;4.62;2.65;;;;;;;11.64;60.30;101104.14;1647199;86;21119;-58
2023/05/13 00:13:05;;;;;;;4.33;2.90;;;;;;;11.62;60.38;101106.22;1646919;87;21099;-58
2023/05/13 00:15:34;;;;;;;4.85;2.90;;;;;;;11.58;60.53;101111.75;1646997;87;21056;-57
2023/05/13 00:18:03;;;;;;;4.58;2.77;;;;;;;11.56;60.64;101112.98;1647029;87;21016;-58
2023/05/13 00:20:34;;;;;;;4.72;2.70;;;;;;;11.51;60.80;101109.94;1647145;87;21028;-58
2023/05/13 00:23:04;;;;;;;6.87;2.70;;;;;;;11.49;60.96;101108.75;1647039;87;20981;-58
2023/05/13 00:25:35;;;;;;;5.03;3.17;;;;;;;11.48;61.01;101113.91;1647096;86;21080;-58
2023/05/13 00:28:04;;;;;;;6.12;3.12;;;;;;;11.47;61.09;101107.23;1648970;87;21083;-58
2023/05/13 00:30:33;;;;;;;6.83;3.20;;;;;;;11.47;61.16;101108.61;1656156;87;21040;-57
2023/05/13 00:33:03;;;;;;;5.17;2.87;;;;;;;11.46;61.32;101106.90;1656404;87;21076;-58
2023/05/13 00:35:32;;;;;;;5.62;2.80;;;;;;;11.37;61.65;101106.12;1656186;87;21100;-59
2023/05/13 00:38:01;;;;;;;5.35;3.20;;;;;;;11.31;61.95;101101.37;1656338;87;21000;-59
2023/05/13 00:40:30;;;;;;;6.87;3.00;;;;;;;11.29;61.97;101104.83;1656382;87;21024;-59
2023/05/13 00:43:00;;;;;;;6.40;2.72;;;;;;;11.25;62.07;101100.75;1656290;87;21032;-57
2023/05/13 00:45:30;;;;;;;4.17;2.47;;;;;;;11.27;62.25;101106.91;1656273;87;21029;-58
2023/05/13 00:47:59;;;;;;;4.33;2.95;;;;;;;11.30;62.34;101110.65;1656401;87;21052;-57
2023/05/13 00:50:30;;;;;;;6.80;3.05;;;;;;;11.34;62.22;101113.36;1656128;87;21016;-58
2023/05/13 00:52:59;;;;;;;5.72;3.00;;;;;;;11.33;61.93;101110.28;1656188;87;21118;-58
2023/05/13 00:55:28;;;;;;;12.45;3.47;;;;;;;11.29;61.88;101121.29;1656146;87;21016;-58
2023/05/13 00:57:57;;;;;;;9.33;4.20;;;;;;;11.28;61.94;101122.33;1656263;87;21514;-58
2023/05/13 01:00:28;;;;;;;7.55;4.25;;;;;;;11.27;62.09;101115.98;1656353;87;21056;-59
2023/05/13 01:03:07;;;;;;;9.93;3.45;;;;;;;11.31;62.06;101117.84;1656176;87;21012;-57
2023/05/13 01:05:52;;;;;;;10.53;3.60;;;;;;;11.27;61.93;101120.10;1656252;87;21064;-57
2023/05/13 01:08:32;;;;;;;7.67;3.52;;;;;;;11.21;61.92;101118.09;1656353;87;21084;-58
2023/05/13 01:11:06;;;;;;;5.78;3.25;;;;;;;11.19;62.02;101124.80;1654714;86;21059;-57
2023/05/13 01:13:41;;;;;;;9.25;3.75;;;;;;;11.16;62.09;101119.69;1656248;87;21021;-58
2023/05/13 01:16:22;;;;;;;9.80;3.90;;;;;;;11.10;62.12;101116.64;1655985;87;21033;-58
2023/05/13 01:19:00;;;;;;;7.85;3.75;;;;;;;11.06;62.25;101121.31;1656435;87;21056;-57
2023/05/13 01:21:32;;;;;;;7.47;3.67;;;;;;;11.00;62.36;101115.16;1656520;87;21024;-58
2023/05/13 01:24:02;;;;;;;7.28;3.37;;;;;;;10.94;62.46;101114.00;1636339;87;21013;-58
2023/05/13 01:26:33;;;;;;;11.12;3.65;;;;;;;10.93;62.70;101115.55;1684908;85;21115;-58
2023/05/13 01:29:04;;;;;;;7.42;3.58;;;;;;;10.91;62.89;101113.51;1651132;86;21116;-57
2023/05/13 01:31:34;;;;;;;5.40;3.30;;;;;;;10.89;63.04;101122.44;1645164;87;21029;-57
2023/05/13 01:34:06;;;;;;;7.85;3.50;;;;;;;10.87;63.10;101120.39;1645114;87;21461;-58
2023/05/13 01:36:36;;;;;;;10.45;3.40;;;;;;;10.83;63.20;101119.91;1645032;87;20997;-59
2023/05/13 01:39:06;;;;;;;10.82;4.08;;;;;;;10.83;63.37;101121.27;1645092;86;21455;-58
2023/05/13 01:41:36;;;;;;;9.50;3.25;;;;;;;10.82;63.44;101116.83;1645287;87;21040;-57
2023/05/13 01:44:05;;;;;;;7.47;3.05;;;;;;;10.81;63.44;101115.13;1645126;86;21029;-57
2023/05/13 01:46:38;;;;;;;5.45;3.05;;;;;;;10.76;63.60;101116.18;1645055;87;21017;-59
2023/05/13 01:49:09;;;;;;;4.95;2.87;;;;;;;10.76;63.57;101120.30;1645071;87;21053;-57
2023/05/13 01:51:40;;;;;;;6.03;3.20;;;;;;;10.72;63.56;101120.32;1645063;87;21096;-58
2023/05/13 01:54:10;;;;;;;8.60;3.35;;;;;;;10.66;63.75;101112.82;1645067;86;21033;-57
2023/05/13 01:56:42;;;;;;;8.90;3.42;;;;;;;10.62;63.79;101121.07;1644990;87;21029;-57
2023/05/13 01:59:13;;;;;;;9.30;3.05;;;;;;;10.60;64.05;101119.03;1645294;87;21421;-57
2023/05/13 02:01:44;;;;;;;9.25;3.85;;;;;;;10.60;64.16;101125.36;1645409;87;21053;-56
2023/05/13 02:04:13;;;;;;;4.78;2.55;;;;;;;10.60;64.01;101119.88;1645117;87;21052;-57
2023/05/13 02:06:43;;;;;;;6.42;4.20;;;;;;;10.58;64.12;101121.09;1644998;87;20989;-57
2023/05/13 02:09:14;;;;;;;13.50;5.22;;;;;;;10.55;64.27;101126.41;1645078;87;21072;-57
2023/05/13 02:11:44;;;;;;;7.12;3.30;;;;;;;10.52;64.39;101128.66;1645129;87;21041;-58
2023/05/13 02:14:13;;;;;;;8.10;3.50;;;;;;;10.50;64.58;101127.98;1645044;86;21068;-55
2023/05/13 02:16:42;;;;;;;9.90;3.60;;;;;;;10.50;64.84;101126.62;1644999;87;21191;-57
2023/05/13 02:19:11;;;;;;;9.88;3.35;;;;;;;10.49;65.07;101125.77;1645232;87;21085;-57
2023/05/13 02:21:43;;;;;;;6.70;3.40;;;;;;;10.50;65.20;101129.36;1594380;89;21532;-57
2023/05/13 02:24:12;;;;;;;9.48;3.40;;;;;;;10.51;65.32;101124.22;1594488;90;21107;-59
2023/05/13 02:26:41;;;;;;;8.13;3.22;;;;;;;10.54;65.22;101120.59;1594588;89;21099;-57
2023/05/13 02:29:10;;;;;;;10.28;3.60;;;;;;;10.55;65.03;101128.30;1594610;89;21055;-57
2023/05/13 02:31:42;;;;;;;7.55;3.30;;;;;;;10.54;65.09;101126.08;1594448;90;21096;-57
2023/05/13 02:34:11;;;;;;;5.30;3.10;;;;;;;10.58;65.00;101130.69;1594312;90;21072;-58
2023/05/13 02:36:42;;;;;;;8.35;3.05;;;;;;;10.59;64.88;101127.77;1594473;90;21079;-57
2023/05/13 02:39:11;;;;;;;8.40;3.37;;;;;;;10.58;64.83;101130.69;1585731;87;21048;-57
2023/05/13 02:41:41;;;;;;;6.75;3.40;;;;;;;10.55;64.88;101134.64;1685434;84;21070;-58
2023/05/13 02:44:11;;;;;;;7.37;3.55;;;;;;;10.55;64.91;101140.63;1652181;87;21048;-57
2023/05/13 02:46:40;;;;;;;12.13;3.90;;;;;;;10.51;65.01;101137.92;1651910;86;21067;-56
2023/05/13 02:49:10;;;;;;;8.73;3.42;;;;;;;10.47;65.11;101136.91;1685712;84;21127;-57
2023/05/13 02:51:39;;;;;;;12.23;3.52;;;;;;;10.46;65.20;101143.94;1685107;85;21075;-56
2023/05/13 02:54:08;;;;;;;6.05;3.50;;;;;;;10.44;65.37;101146.00;1685171;85;21467;-59
2023/05/13 02:56:37;;;;;;;12.88;3.75;;;;;;;10.46;65.36;101148.90;1685154;85;21459;-57
2023/05/13 02:59:06;;;;;;;7.33;4.08;;;;;;;10.44;65.50;101147.37;1651909;87;21440;-57
2023/05/13 03:01:37;;;;;;;7.62;3.70;;;;;;;10.43;65.65;101146.52;1686226;84;21067;-56
2023/05/13 03:04:09;;;;;;;6.92;3.72;;;;;;;10.43;65.77;101147.03;1651936;87;21028;-57
2023/05/13 03:06:39;;;;;;;9.25;4.05;;;;;;;10.43;65.79;101154.73;1651695;87;21040;-57
2023/05/13 03:09:09;;;;;;;7.65;4.00;;;;;;;10.36;65.91;101155.08;1652542;86;21468;-57
2023/05/13 03:11:38;;;;;;;13.22;5.00;;;;;;;10.29;66.18;101154.08;1685765;84;21503;-58
2023/05/13 03:14:08;;;;;;;10.93;4.20;;;;;;;10.28;66.44;101160.59;1685272;85;21489;-57
2023/05/13 03:16:39;;;;;;;12.05;4.37;;;;;;;10.32;66.65;101152.36;1652052;87;21961;-57
2023/05/13 03:19:09;;;;;;;7.92;4.00;;;;;;;10.37;66.64;101154.05;1685180;84;21066;-56
2023/05/13 03:21:39;;;;;;;8.88;4.45;;;;;;;10.39;66.68;101157.98;1652073;87;21059;-58
2023/05/13 03:24:10;;;;;;;8.48;4.22;;;;;;;10.38;66.90;101159.86;1686164;84;21063;-58
2023/05/13 03:26:40;;;;;;;9.88;4.58;;;;;;;10.45;66.96;101160.89;1652072;87;21072;-56
2023/05/13 03:29:10;;;;;;;9.03;4.15;;;;;;;10.47;66.91;101158.83;1650453;86;21092;-57
2023/05/13 03:31:42;;;;;;;11.43;4.80;;;;;;;10.49;66.88;101160.02;1678245;85;21083;-57
2023/05/13 03:34:12;;;;;;;10.85;4.30;;;;;;;10.53;66.91;101164.11;1684756;85;21412;-57
2023/05/13 03:36:41;;;;;;;22.25;5.47;;;;;;;10.59;66.73;101160.65;1668712;84;21092;-57
2023/05/13 03:39:11;;;;;;;14.03;4.80;;;;;;;10.65;66.59;101171.41;1677616;85;21508;-58
2023/05/13 03:41:40;;;;;;;12.50;4.85;;;;;;;10.70;66.45;101167.61;1685010;84;21048;-56
2023/05/13 03:44:09;;;;;;;12.70;4.90;;;;;;;10.79;66.34;101174.23;1646757;87;21077;-55
2023/05/13 03:46:39;;;;;;;12.18;5.08;;;;;;;10.89;66.37;101169.89;1677646;85;21423;-56
2023/05/13 03:49:08;;;;;;;16.15;5.60;;;;;;;10.96;66.16;101174.98;1684675;85;21087;-57
2023/05/13 03:51:37;;;;;;;10.65;4.90;;;;;;;11.06;65.86;101181.12;1647079;86;21506;-56
2023/05/13 03:54:07;;;;;;;9.13;4.55;;;;;;;11.17;65.79;101177.11;1647626;86;21072;-57
2023/05/13 03:56:37;;;;;;;10.98;4.78;;;;;;;11.27;65.70;101180.45;1646794;87;21056;-57
2023/05/13 03:59:07;;;;;;;8.75;4.55;;;;;;;11.35;65.36;101186.40;1646910;86;21053;-57
2023/05/13 04:01:37;;;;;;;11.40;4.12;;;;;;;11.44;65.23;101183.41;1648017;85;21100;-57
2023/05/13 04:04:06;;;;;;;10.00;4.20;;;;;;;11.52;64.97;101189.34;1646954;87;21068;-57
2023/05/13 04:06:35;;;;;;;15.95;4.90;;;;;;;11.61;64.69;101187.38;1677653;85;21082;-57
2023/05/13 04:09:04;;;;;;;8.33;3.98;;;;;;;11.69;64.37;101187.30;1684108;85;21086;-59
2023/05/13 04:11:33;;;;;;;11.05;4.17;;;;;;;11.79;64.37;101188.48;1646907;87;21487;-57
2023/05/13 04:14:04;;;;;;;10.85;4.10;;;;;;;11.87;64.17;101185.66;1647282;86;21053;-57
2023/05/13 04:16:33;;;;;;;10.18;4.12;;;;;;;11.94;64.01;101192.10;1678081;85;21048;-58
2023/05/13 04:19:03;;;;;;;7.80;4.28;;;;;;;12.03;63.72;101192.34;1647013;87;21025;-57
2023/05/13 04:21:33;;;;;;;8.93;4.00;;;;;;;12.13;63.32;101191.55;1678103;84;20996;-58
2023/05/13 04:24:03;;;;;;;7.15;3.60;;;;;;;12.26;62.91;101192.27;1684860;85;21117;-56
2023/05/13 04:26:32;;;;;;;12.68;4.22;;;;;;;12.38;62.48;101193.53;1677215;85;21083;-57
2023/05/13 04:29:01;;;;;;;8.15;4.00;;;;;;;12.50;61.90;101196.13;1678217;85;21067;-58
2023/05/13 04:31:30;;;;;;;8.38;4.20;;;;;;;12.61;61.58;101198.91;1685346;85;21105;-57
2023/05/13 04:33:59;;;;;;;8.18;3.70;;;;;;;12.72;61.31;101198.94;1626244;87;21076;-57
2023/05/13 04:36:30;;;;;;;10.03;3.72;;;;;;;12.81;60.73;101200.02;1652316;86;21498;-57
2023/05/13 04:39:00;;;;;;;5.08;3.27;;;;;;;12.91;59.89;101206.06;1652024;86;20981;-57
2023/05/13 04:41:29;;;;;;;8.03;3.62;;;;;;;13.03;59.30;101206.97;1685124;85;21016;-57
2023/05/13 04:43:58;;;;;;;5.05;3.27;;;;;;;13.12;58.88;101212.16;1652032;87;21092;-58
2023/05/13 04:46:28;;;;;;;7.90;3.65;;;;;;;13.20;58.22;101208.45;1651935;86;21024;-58
2023/05/13 04:48:57;;;;;;;7.17;3.70;;;;;;;13.28;57.63;101208.33;1652167;86;21005;-56
2023/05/13 04:51:28;;;;;;;9.70;4.03;;;;;;;13.37;57.40;101211.28;1653169;86;21025;-57
2023/05/13 04:53:58;;;;;;;9.33;4.10;;;;;;;13.46;57.33;101209.25;1651887;86;21040;-57
2023/05/13 04:56:29;;;;;;;14.70;4.90;;;;;;;13.54;57.27;101203.61;1686196;84;21051;-58
2023/05/13 04:58:58;;;;;;;21.77;4.72;;;;;;;13.62;57.04;101201.58;1685291;85;21513;-57
2023/05/13 05:01:28;;;;;;;7.67;3.65;;;;;;;13.74;56.73;101203.83;1652142;87;21029;-57
2023/05/13 05:03:58;;;;;;;11.80;4.37;;;;;;;13.83;56.24;101202.10;1652088;86;21044;-58
2023/05/13 05:06:27;;;;;;;11.78;4.20;;;;;;;13.97;55.68;101203.05;1684750;85;21039;-59
2023/05/13 05:08:56;;;;;;;16.27;9.10;;;;;;;14.11;55.28;101206.23;1685191;85;21479;-58
2023/05/13 05:11:27;;;;;;;9.68;6.25;;;;;;;14.25;54.61;101205.80;1652282;87;21020;-57
2023/05/13 05:13:57;;;;;;;9.60;4.95;;;;;;;14.50;53.90;101199.33;1685557;84;21102;-57
2023/05/13 05:16:27;;;;;;;13.48;4.78;;;;;;;14.83;53.00;101200.86;1652201;87;21544;-58
2023/05/13 05:19:00;;;;;;;7.33;3.50;;;;;;;15.22;51.42;101205.69;1651700;87;21076;-57
2023/05/13 05:21:30;;;;;;;11.83;3.67;;;;;;;15.59;50.21;101194.62;1651322;87;21024;-57
2023/05/13 05:24:00;;;;;;;5.28;2.75;;;;;;;16.02;49.53;101196.98;1652399;86;21024;-58
2023/05/13 05:26:30;;;;;;;7.33;3.27;;;;;;;16.46;47.86;101193.53;1685727;84;21043;-56
2023/05/13 05:29:00;;;;;;;6.00;2.67;;;;;;;16.88;46.84;101195.44;1685213;85;21127;-58
2023/05/13 05:31:30;;;;;;;5.53;2.58;;;;;;;17.28;45.78;101199.72;1687286;85;21054;-57
2023/05/13 05:34:01;;;;;;;8.08;2.62;;;;;;;17.64;44.02;101199.62;1677296;85;21578;-60
2023/05/13 05:36:30;;;;;;;5.65;3.02;;;;;;;17.92;43.13;101195.90;1656405;87;21090;-57
2023/05/13 05:39:01;;;;;;;5.15;2.80;;;;;;;18.22;42.71;101196.61;1656497;87;21060;-57
2023/05/13 05:41:32;;;;;;;6.03;2.60;;;;;;;18.51;41.96;101193.09;1656333;86;21113;-59
2023/05/13 05:44:01;;;;;;;4.62;2.58;;;;;;;18.81;41.02;101195.97;1656327;87;21123;-59
2023/05/13 05:46:31;;;;;;;4.92;2.72;;;;;;;19.07;40.39;101200.91;1656384;86;21079;-57
2023/05/13 05:49:02;;;;;;;6.67;3.22;;;;;;;19.31;39.57;101192.97;1656406;86;21064;-58
2023/05/13 05:51:34;;;;;;;7.60;3.27;;;;;;;19.53;39.17;101198.36;1687162;85;21521;-59
2023/05/13 05:54:04;;;;;;;13.55;3.40;;;;;;;19.70;38.64;101188.80;1687288;85;21512;-58
2023/05/13 05:56:35;;;;;;;7.60;3.33;;;;;;;19.87;38.42;101199.52;1677327;85;21107;-58
2023/05/13 05:59:04;;;;;;;8.65;3.90;;;;;;;20.09;38.08;101197.00;1677430;85;22000;-57
2023/05/13 06:01:35;;;;;;;8.73;3.83;;;;;;;20.31;37.59;101189.47;1656039;86;21075;-59
2023/05/13 06:04:05;;;;;;;11.60;3.65;;;;;;;20.50;37.22;101190.52;1656215;86;21036;-58
2023/05/13 06:06:35;;;;;;;8.83;2.55;;;;;;;20.77;36.38;101190.82;1656090;86;21049;-56
2023/05/13 06:09:06;;;;;;;5.30;2.42;;;;;;;20.92;35.08;101193.11;1687373;85;21123;-59
2023/05/13 06:11:36;;;;;;;6.03;3.00;;;;;;;21.04;34.82;101195.31;1677572;85;21079;-55
2023/05/13 06:14:05;;;;;;;4.03;2.47;;;;;;;21.24;34.25;101199.09;1677302;85;21039;-58
2023/05/13 06:16:34;;;;;;;8.28;2.75;;;;;;;21.43;33.32;101198.33;1687479;85;21095;-57
2023/05/13 06:19:03;;;;;;;3.87;2.27;;;;;;;21.52;33.29;101198.25;1687338;85;21031;-59
2023/05/13 06:21:34;;;;;;;4.37;1.85;;;;;;;21.70;32.65;101200.81;1656011;87;21008;-59
2023/05/13 06:24:04;;;;;;;3.37;2.10;;;;;;;21.82;32.69;101194.61;1687281;85;21075;-58
2023/05/13 06:26:34;;;;;;;4.00;2.08;;;;;;;22.03;32.45;101195.83;1687409;85;21094;-58
2023/05/13 06:29:05;;;;;;;6.12;2.35;;;;;;;22.36;31.98;101200.56;1677643;85;21043;-58
2023/05/13 06:31:35;;;;;;;5.62;2.40;;;;;;;22.62;31.80;101203.72;1686051;84;21055;-58
2023/05/13 06:34:05;;;;;;;4.33;2.15;;;;;;;22.96;31.08;101199.77;1651801;87;21056;-57
2023/05/13 06:36:35;;;;;;;7.80;2.67;;;;;;;23.22;31.15;101202.86;1685129;85;21092;-58
2023/05/13 06:39:08;;;;;;;3.90;2.12;;;;;;;23.37;30.32;101200.23;1651943;87;21021;-57
2023/05/13 06:41:42;;;;;;;8.33;2.70;;;;;;;23.44;30.54;101196.70;1652148;86;21060;-57
2023/05/13 06:44:14;;;;;;;6.08;2.40;;;;;;;23.76;30.05;101207.13;1685434;85;21007;-58
2023/05/13 06:46:45;;;;;;;8.50;2.17;;;;;;;23.82;30.10;101204.11;1651834;86;21063;-57
2023/05/13 06:49:15;;;;;;;3.75;2.17;;;;;;;23.88;29.92;101209.19;1685474;85;21071;-59
2023/05/13 06:51:44;;;;;;;4.83;2.27;;;;;;;23.89;29.90;101196.88;1652006;87;21417;-57
2023/05/13 06:54:13;;;;;;;3.85;2.37;;;;;;;24.11;29.49;101199.05;1651879;87;21514;-58
2023/05/13 06:56:43;;;;;;;3.20;2.20;;;;;;;24.16;29.52;101199.65;1684535;85;21019;-58
2023/05/13 06:59:12;;;;;;;3.55;2.55;;;;;;;24.30;29.46;101198.95;1652177;87;21056;-58
2023/05/13 07:01:41;;;;;;;7.50;2.65;;;;;;;24.45;28.94;101198.76;1652373;86;21103;-58
2023/05/13 07:04:11;;;;;;;5.55;2.22;;;;;;;24.55;29.09;101192.66;1652926;86;21044;-57
2023/05/13 07:06:41;;;;;;;6.00;2.55;;;;;;;24.62;28.62;101194.66;1651825;86;21025;-58
2023/05/13 07:09:11;;;;;;;4.90;2.10;;;;;;;24.62;28.96;101195.22;1651891;86;21020;-58
2023/05/13 07:11:41;;;;;;;3.00;2.02;;;;;;;24.90;27.29;101193.42;1651806;87;21012;-59
2023/05/13 07:14:10;;;;;;;3.72;1.82;;;;;;;24.90;27.29;101193.42;1652157;87;21084;-59
2023/05/13 07:16:40;;;;;;;3.75;1.90;;;;;;;24.97;27.25;101191.77;1651513;87;21072;-56
2023/05/13 07:19:09;;;;;;;4.65;2.10;;;;;;;25.19;27.19;101191.59;1650913;87;21017;-57
2023/05/13 07:21:38;;;;;;;2.22;1.70;;;;;;;25.42;26.77;101191.12;1685538;84;21039;-58
2023/05/13 07:24:08;;;;;;;5.28;1.70;;;;;;;25.56;26.48;101184.41;1597256;89;21483;-58
2023/05/13 07:26:37;;;;;;;3.62;1.80;;;;;;;25.66;26.16;101179.41;1606258;89;21145;-58
2023/05/13 07:29:08;;;;;;;3.42;1.80;;;;;;;25.79;26.31;101183.91;1597684;90;21067;-57
2023/05/13 07:31:37;;;;;;;5.85;1.80;;;;;;;25.95;26.04;101179.13;1593257;89;21079;-59
2023/05/13 07:34:06;;;;;;;6.70;1.90;;;;;;;26.39;25.16;101192.63;1599236;89;21039;-58
2023/05/13 07:36:36;;;;;;;4.15;1.70;;;;;;;26.49;24.13;101182.77;1599690;90;21067;-58
2023/05/13 07:39:07;;;;;;;3.52;1.98;;;;;;;26.30;24.36;101184.47;1599415;90;21071;-57
2023/05/13 07:41:37;;;;;;;3.80;1.80;;;;;;;26.04;24.44;101180.28;1618318;85;21071;-58
2023/05/13 07:44:10;;;;;;;2.40;1.70;;;;;;;26.08;24.53;101177.19;1684649;85;21031;-58
2023/05/13 07:46:37;;;;;;;2.85;1.52;;;;;;;26.16;24.28;101172.41;1684681;85;21063;-58
2023/05/13 07:49:07;;;;;;;6.67;2.10;;;;;;;26.31;24.49;101178.56;1684613;84;21960;-58
2023/05/13 07:51:36;;;;;;;8.23;2.52;;;;;;;26.38;24.63;101177.73;1682998;83;21067;-60
2023/05/13 07:54:08;;;;;;;9.83;2.60;;;;;;;26.43;24.43;101175.48;1694464;84;21130;-59
2023/05/13 07:56:39;;;;;;;4.35;1.95;;;;;;;26.49;24.17;101184.17;1683315;84;21033;-57
2023/05/13 07:59:09;;;;;;;5.28;2.20;;;;;;;26.55;24.22;101174.60;1679175;83;21469;-57
2023/05/13 08:01:38;;;;;;;4.35;1.47;;;;;;;26.69;24.05;101177.69;1696699;83;21024;-58
2023/05/13 08:04:08;;;;;;;3.22;1.67;;;;;;;26.77;23.72;101182.15;1677296;85;21107;-59
2023/05/13 08:06:37;;;;;;;3.37;1.60;;;;;;;26.82;23.15;101185.51;1689682;84;21102;-59
2023/05/13 08:09:13;;;;;;;3.98;1.80;;;;;;;26.91;22.63;101178.72;1695098;84;21058;-57
2023/05/13 08:11:45;;;;;;;3.98;1.70;;;;;;;26.73;22.64;101178.23;1708674;84;21100;-56
2023/05/13 08:14:17;;;;;;;3.65;1.50;;;;;;;26.63;22.71;101176.83;1708349;84;21069;-62
2023/05/13 08:16:49;;;;;;;3.98;2.00;;;;;;;26.77;22.72;101179.91;1708468;84;21142;-57
2023/05/13 08:19:19;;;;;;;4.47;1.72;;;;;;;26.79;22.14;101175.67;1708292;83;21060;-57
2023/05/13 08:21:48;;;;;;;3.58;1.72;;;;;;;26.51;22.12;101175.73;1708381;84;21079;-58
2023/05/13 08:24:19;;;;;;;3.85;1.90;;;;;;;26.17;22.84;101175.49;1708622;84;21046;-58
2023/05/13 08:26:48;;;;;;;3.87;1.70;;;;;;;26.11;22.72;101171.01;1679002;84;21045;-58
2023/05/13 08:29:17;;;;;;;4.17;2.08;;;;;;;26.05;23.05;101156.69;1676665;85;21096;-62
2023/05/13 08:31:46;;;;;;;4.92;1.70;;;;;;;26.14;22.94;101154.98;1676665;85;21128;-57
2023/05/13 08:34:15;;;;;;;6.05;1.60;;;;;;;26.36;22.83;101166.50;1676916;85;21022;-58
2023/05/13 08:36:45;;;;;;;4.45;1.50;;;;;;;26.48;21.89;101162.25;1677085;85;21141;-58
2023/05/13 08:39:14;;;;;;;5.53;1.77;;;;;;;26.43;21.80;101171.27;1676771;85;21034;-59
2023/05/13 08:41:44;;;;;;;3.22;1.40;;;;;;;26.36;21.65;101163.13;1676841;85;21093;-59
2023/05/13 08:44:13;;;;;;;3.00;1.37;;;;;;;26.21;21.72;101154.14;1676820;85;21049;-59
2023/05/13 08:46:47;;;;;;;3.85;1.57;;;;;;;26.19;22.03;101152.17;1676915;85;21131;-58
2023/05/13 08:49:16;;;;;;;5.47;1.70;;;;;;;26.36;22.47;101146.83;1676884;85;21109;-58
2023/05/13 08:51:45;;;;;;;3.83;1.30;;;;;;;26.54;21.99;101143.41;1676722;85;21030;-58
2023/05/13 08:54:15;;;;;;;1.45;1.22;;;;;;;26.68;21.74;101142.26;1676919;84;21500;-59
2023/05/13 08:56:45;;;;;;;4.58;1.45;;;;;;;26.75;21.30;101139.42;1677175;85;21052;-59
2023/05/13 08:59:14;;;;;;;3.80;1.50;;;;;;;26.73;21.04;101136.05;1682959;84;21058;-57
2023/05/13 09:01:44;;;;;;;3.77;1.30;;;;;;;26.74;20.53;101136.33;1703517;84;21125;-57
2023/05/13 09:04:13;;;;;;;4.35;1.98;;;;;;;26.59;20.83;101141.14;1703598;84;21109;-58
2023/05/13 09:06:42;;;;;;;2.92;1.72;;;;;;;26.30;20.77;101135.30;1703708;84;21061;-58
2023/05/13 09:09:11;;;;;;;5.47;1.40;;;;;;;26.30;20.77;101135.30;1705186;84;21316;-57
2023/05/13 09:11:41;;;;;;;5.17;1.40;;;;;;;26.18;21.33;101132.23;1703567;84;21041;-58
2023/05/13 09:14:12;;;;;;;5.58;2.17;;;;;;;26.08;21.18;101129.44;1703557;84;21118;-58
2023/05/13 09:16:41;;;;;;;2.87;1.25;;;;;;;25.90;21.39;101124.38;1703561;84;21374;-56
2023/05/13 09:19:10;;;;;;;7.22;3.12;;;;;;;25.81;21.81;101127.47;1681965;84;21473;-57
2023/05/13 09:21:41;;;;;;;2.02;1.70;;;;;;;25.73;21.96;101119.05;1703811;84;20998;-56
2023/05/13 09:24:18;;;;;;;3.33;2.12;;;;;;;25.55;22.15;101113.41;1704870;84;21093;-57
2023/05/13 09:26:48;;;;;;;1.80;1.57;;;;;;;25.32;22.45;101111.11;1703719;84;21058;-57
2023/05/13 09:29:21;;;;;;;6.95;1.80;;;;;;;25.23;23.19;101108.58;1703591;84;21061;-56
2023/05/13 09:31:54;;;;;;;2.55;1.35;;;;;;;25.22;23.45;101107.73;1708808;83;21080;-56
2023/05/13 09:34:33;;;;;;;4.47;1.37;;;;;;;25.19;23.00;101105.48;1713403;83;21101;-56
2023/05/13 09:37:05;;;;;;;3.08;1.60;;;;;;;24.91;23.09;101092.77;1723546;83;21057;-56
2023/05/13 09:39:40;;;;;;;6.03;3.40;;;;;;;24.59;23.47;101088.72;1713519;84;21057;-58
2023/05/13 09:42:18;;;;;;;5.20;2.40;;;;;;;24.46;23.65;101087.82;1713485;84;21029;-57
2023/05/13 09:44:48;;;;;;;2.10;1.57;;;;;;;24.38;24.28;101076.30;1723514;83;21456;-57
2023/05/13 09:47:17;;;;;;;5.28;2.00;;;;;;;24.38;23.62;101079.09;1713634;84;21033;-58
2023/05/13 09:49:54;;;;;;;1.77;1.40;;;;;;;24.29;23.76;101075.41;1723702;83;21088;-58
2023/05/13 09:52:23;;;;;;;4.50;1.55;;;;;;;24.20;23.72;101070.58;1713635;84;21431;-56
2023/05/13 09:54:52;;;;;;;4.95;1.40;;;;;;;24.16;23.80;101074.47;1723575;83;21064;-56
2023/05/13 09:57:23;;;;;;;2.15;1.30;;;;;;;24.24;23.74;101073.11;1717300;83;21017;-57
2023/05/13 09:59:58;;;;;;;1.50;1.05;;;;;;;24.37;22.80;101061.44;1697445;84;21522;-57
2023/05/13 10:02:27;;;;;;;2.92;1.35;;;;;;;24.46;22.25;101064.56;1681359;85;21485;-58
2023/05/13 10:04:57;;;;;;;4.67;1.45;;;;;;;24.38;22.53;101054.73;1681751;85;21540;-58
2023/05/13 10:07:26;;;;;;;4.55;1.47;;;;;;;24.35;22.78;101048.27;1681458;85;21037;-60
2023/05/13 10:10:00;;;;;;;4.70;1.32;;;;;;;24.42;22.73;101062.02;1681640;85;21057;-57
2023/05/13 10:12:30;;;;;;;5.05;2.05;;;;;;;24.43;22.71;101053.34;1681585;85;21090;-56
2023/05/13 10:15:00;;;;;;;2.17;1.50;;;;;;;24.41;22.75;101053.34;1662229;85;21113;-57
2023/05/13 10:17:29;;;;;;;2.85;1.30;;;;;;;24.37;22.84;101049.39;1640734;85;21465;-58
2023/05/13 10:19:58;;;;;;;3.27;1.40;;;;;;;24.32;22.85;101053.86;1681600;85;21085;-56
2023/05/13 10:22:30;;;;;;;2.72;1.45;;;;;;;24.24;22.76;101053.51;1681736;85;21049;-57
2023/05/13 10:25:01;;;;;;;2.67;1.30;;;;;;;24.16;22.98;101050.67;1681507;85;21092;-57
2023/05/13 10:27:32;;;;;;;3.83;2.47;;;;;;;24.02;23.03;101053.64;1681577;85;21081;-58
2023/05/13 10:30:02;;;;;;;4.50;1.87;;;;;;;23.91;23.36;101051.34;1681546;85;21466;-57
2023/05/13 10:32:32;;;;;;;3.47;1.52;;;;;;;23.79;23.47;101042.86;1669427;84;21152;-56
2023/05/13 10:35:11;;;;;;;2.92;1.40;;;;;;;23.74;24.06;101034.43;1660457;86;21042;-58
2023/05/13 10:38:14;;;;;;;7.40;2.05;;;;;;;23.75;24.33;101039.77;1660311;85;21006;-57
2023/05/13 10:40:52;;;;;;;2.22;1.50;;;;;;;23.80;24.44;101038.39;1660479;85;21085;-57
2023/05/13 10:43:24;;;;;;;1.90;1.20;;;;;;;23.82;24.44;101026.93;1660436;86;21074;-57
2023/05/13 10:46:06;;;;;;;3.05;1.70;;;;;;;23.77;24.19;101026.89;1660574;86;21010;-57
2023/05/13 10:48:41;;;;;;;2.83;1.50;;;;;;;23.70;24.43;101034.97;1651425;86;21136;-56
2023/05/13 10:51:15;;;;;;;2.62;1.62;;;;;;;23.75;24.43;101034.72;1660629;85;21085;-57
2023/05/13 10:53:50;;;;;;;4.08;1.95;;;;;;;23.77;24.51;101025.50;1660445;86;21120;-57
2023/05/13 10:56:27;;;;;;;3.42;1.90;;;;;;;23.79;24.25;101045.10;1660460;85;21083;-57
2023/05/13 10:59:01;;;;;;;4.33;2.27;;;;;;;23.66;24.24;101032.42;1663767;84;21038;-56
2023/05/13 11:01:42;;;;;;;2.47;1.55;;;;;;;23.56;24.34;101035.16;1708440;84;21492;-57
2023/05/13 11:04:17;;;;;;;5.55;2.15;;;;;;;23.40;24.37;101036.08;1707657;84;21469;-57
2023/05/13 11:06:49;;;;;;;4.42;1.70;;;;;;;23.24;24.49;101035.66;1708547;84;21045;-57
2023/05/13 11:09:24;;;;;;;5.40;1.50;;;;;;;23.14;24.67;101029.98;1708409;83;21482;-61
2023/05/13 11:11:55;;;;;;;2.60;1.40;;;;;;;23.09;25.42;101027.44;1707315;84;21062;-57
2023/05/13 11:14:26;;;;;;;8.93;2.47;;;;;;;23.06;25.25;101030.76;1708615;84;21057;-57
2023/05/13 11:17:07;;;;;;;12.00;3.08;;;;;;;23.06;25.20;101019.58;1708468;84;21073;-57
2023/05/13 11:19:46;;;;;;;5.50;1.52;;;;;;;23.11;25.21;101019.33;1708233;84;21121;-58
2023/05/13 11:22:20;;;;;;;4.65;2.00;;;;;;;23.18;25.15;101017.16;1708602;84;21061;-56
2023/05/13 11:25:09;;;;;;;2.87;1.40;;;;;;;23.22;24.93;101014.96;1708388;83;21220;-56
2023/05/13 11:27:40;;;;;;;2.20;1.60;;;;;;;23.28;24.91;101018.64;1708280;84;21479;-57
2023/05/13 11:30:27;;;;;;;4.33;2.30;;;;;;;23.27;24.69;101015.55;1708525;83;21085;-57
2023/05/13 11:32:57;;;;;;;4.22;1.85;;;;;;;23.24;24.74;101007.70;1708123;84;21061;-58
2023/05/13 11:35:30;;;;;;;2.75;1.75;;;;;;;23.22;24.98;101008.52;1723748;83;21080;-58
2023/05/13 11:38:00;;;;;;;5.30;1.80;;;;;;;23.22;24.74;101001.53;1723838;83;21142;-58
2023/05/13 11:40:37;;;;;;;3.98;1.30;;;;;;;23.17;24.61;101002.89;1723827;83;21316;-57